createdAt,value
2022-09-10T00:04:33.470Z,97.90
2022-09-10T00:09:35.221Z,97.36
2022-09-10T00:14:36.863Z,95.24
2022-09-10T00:19:38.548Z,94.05
2022-09-10T00:24:40.128Z,93.03
2022-09-10T00:29:41.705Z,91.07
2022-09-10T00:34:43.288Z,91.74
2022-09-10T00:39:44.897Z,88.26
2022-09-10T00:44:46.462Z,89.32
2022-09-10T00:49:52.505Z,87.79
2022-09-10T00:54:54.883Z,87.87
2022-09-10T01:00:03.359Z,86.25
2022-09-10T01:05:07.111Z,83.96
2022-09-10T01:10:13.629Z,80.48
2022-09-10T01:15:48.805Z,78.41
2022-09-10T01:20:57.210Z,80.67
2022-09-10T01:26:21.790Z,81.14
2022-09-10T01:31:54.646Z,82.91
2022-09-10T01:37:04.095Z,83.26
2022-09-10T01:42:06.693Z,85.21
2022-09-10T01:47:50.238Z,86.42
2022-09-10T01:53:10.958Z,86.53
2022-09-10T01:58:34.689Z,86.75
2022-09-10T02:03:45.563Z,88.08
2022-09-10T02:08:52.300Z,86.85
2022-09-10T02:13:54.033Z,90.24
2022-09-10T02:19:05.430Z,92.76
2022-09-10T02:24:11.418Z,93.51
2022-09-10T02:29:15.321Z,94.34
2022-09-10T02:34:17.728Z,94.59
2022-09-10T02:39:21.838Z,95.24
2022-09-10T02:44:23.385Z,96.56
2022-09-10T02:49:24.963Z,95.42
2022-09-10T02:54:26.512Z,92.38
2022-09-10T02:59:29.170Z,90.72
2022-09-10T03:04:32.053Z,95.22
2022-09-10T03:09:35.637Z,96.24
2022-09-10T03:14:37.410Z,97.63
2022-09-10T03:19:40.076Z,97.03
2022-09-10T03:24:42.014Z,98.90
2022-09-10T03:29:44.386Z,99.89
2022-09-10T03:34:49.419Z,100.00
2022-09-10T03:39:52.635Z,100.00
2022-09-10T03:44:56.312Z,100.00
2022-09-10T03:49:59.784Z,100.00
2022-09-10T03:55:01.469Z,99.56
2022-09-10T04:00:05.256Z,98.62
2022-09-10T04:05:16.777Z,99.41
2022-09-10T04:10:20.855Z,97.73
2022-09-10T04:15:24.761Z,99.46
2022-09-10T04:20:28.329Z,100.00
2022-09-10T04:25:38.028Z,100.00
2022-09-10T04:30:40.339Z,99.58
2022-09-10T04:35:43.641Z,100.00
2022-09-10T04:40:47.646Z,100.00
2022-09-10T04:45:50.043Z,100.00
2022-09-10T04:51:14.791Z,100.00
2022-09-10T04:56:15.037Z,100.00
2022-09-10T05:01:17.435Z,100.00
2022-09-10T05:06:21.277Z,100.00
2022-09-10T05:11:25.470Z,100.00
2022-09-10T05:16:28.549Z,100.00
2022-09-10T05:21:31.266Z,100.00
2022-09-10T05:26:33.175Z,100.00
2022-09-10T05:31:35.584Z,100.00
2022-09-10T05:36:37.690Z,100.00
2022-09-10T05:41:39.583Z,100.00
2022-09-10T05:46:42.518Z,100.00
2022-09-10T05:51:48.167Z,100.00
2022-09-10T05:56:51.324Z,100.00
2022-09-10T06:01:53.557Z,90.37
2022-09-10T06:06:56.908Z,82.06
2022-09-10T06:11:58.645Z,78.80
2022-09-10T06:17:01.377Z,75.09
2022-09-10T06:22:06.938Z,76.01
2022-09-10T06:27:14.328Z,77.57
2022-09-10T06:32:18.752Z,75.90
2022-09-10T06:37:24.156Z,73.32
2022-09-10T06:42:26.657Z,71.46
2022-09-10T06:53:15.097Z,71.72
2022-09-10T06:58:22.230Z,72.31
2022-09-10T07:03:25.768Z,69.63
2022-09-10T07:08:28.387Z,70.46
2022-09-10T07:13:31.835Z,71.49
2022-09-10T07:18:35.261Z,68.34
2022-09-10T07:23:39.247Z,66.67
2022-09-10T07:28:44.764Z,64.55
2022-09-10T07:33:48.167Z,66.71
2022-09-10T07:38:57.559Z,66.35
2022-09-10T07:44:00.040Z,68.57
2022-09-10T07:49:06.881Z,66.53
2022-09-10T07:54:08.567Z,67.70
2022-09-10T07:59:17.263Z,67.42
2022-09-10T08:04:23.506Z,67.80
2022-09-10T08:09:27.777Z,67.73
2022-09-10T08:14:31.646Z,67.67
2022-09-10T08:19:34.135Z,64.79
2022-09-10T08:24:36.758Z,66.22
2022-09-10T08:29:39.650Z,64.69
2022-09-10T08:34:43.546Z,63.52
2022-09-10T08:39:46.644Z,63.07
2022-09-10T08:44:58.791Z,63.10
2022-09-10T08:50:23.472Z,63.03
2022-09-10T08:55:33.760Z,64.33
2022-09-10T09:00:39.825Z,62.83
2022-09-10T09:05:49.517Z,64.02
2022-09-10T09:11:13.178Z,64.02
2022-09-10T09:16:17.785Z,59.61
2022-09-10T09:21:34.100Z,56.89
2022-09-10T09:26:36.931Z,57.41
2022-09-10T09:31:49.626Z,57.95
2022-09-10T09:36:55.877Z,57.48
2022-09-10T09:42:21.296Z,59.42
2022-09-10T09:47:24.263Z,58.43
2022-09-10T09:52:32.430Z,58.35
2022-09-10T09:57:34.136Z,57.81
2022-09-10T10:02:36.811Z,53.34
2022-09-10T10:07:39.036Z,53.63
2022-09-10T10:12:49.436Z,49.25
2022-09-10T10:17:51.566Z,49.28
2022-09-10T10:22:53.137Z,51.93
2022-09-10T10:27:54.835Z,50.12
2022-09-10T10:32:59.523Z,50.36
2022-09-10T10:38:07.428Z,48.54
2022-09-10T10:43:42.219Z,46.87
2022-09-10T10:49:17.618Z,46.10
2022-09-10T10:54:19.162Z,50.17
2022-09-10T10:59:28.655Z,52.32
2022-09-10T11:04:48.813Z,54.37
2022-09-10T11:10:03.920Z,51.87
2022-09-10T11:15:37.516Z,50.75
2022-09-10T11:20:47.302Z,50.96
2022-09-10T11:26:03.761Z,53.17
2022-09-10T11:31:15.579Z,54.93
2022-09-10T11:36:42.901Z,55.36
2022-09-10T11:41:47.671Z,54.21
2022-09-10T11:47:25.221Z,51.41
2022-09-10T11:52:30.108Z,50.58
2022-09-10T11:57:49.102Z,57.98
2022-09-10T12:03:27.203Z,57.92
2022-09-10T12:08:36.744Z,57.76
2022-09-10T12:13:41.704Z,60.57
2022-09-10T12:18:47.933Z,57.75
2022-09-10T12:23:51.116Z,58.87
2022-09-10T12:28:52.656Z,58.57
2022-09-10T12:33:54.232Z,59.10
2022-09-10T12:39:22.597Z,57.63
2022-09-10T12:44:36.401Z,59.04
2022-09-10T12:49:51.855Z,57.58
2022-09-10T12:55:11.904Z,57.02
2022-09-10T13:00:18.288Z,58.36
2022-09-10T13:05:29.223Z,54.96
2022-09-10T13:10:31.465Z,56.03
2022-09-10T13:15:38.070Z,56.95
2022-09-10T13:20:40.276Z,56.10
2022-09-10T13:25:44.775Z,56.22
2022-09-10T13:30:46.879Z,57.85
2022-09-10T13:36:30.079Z,57.89
2022-09-10T13:42:15.103Z,58.06
2022-09-10T13:47:22.529Z,55.34
2022-09-10T13:52:46.302Z,53.60
2022-09-10T13:57:54.743Z,52.29
2022-09-10T14:03:01.344Z,52.85
2022-09-10T14:08:53.908Z,52.57
2022-09-10T14:14:09.675Z,53.89
2022-09-10T14:19:27.812Z,55.24
2022-09-10T14:24:50.576Z,56.21
2022-09-10T14:29:56.921Z,57.09
2022-09-10T14:34:59.443Z,59.40
2022-09-10T14:40:14.450Z,60.22
2022-09-10T14:45:37.911Z,56.72
2022-09-10T14:50:39.498Z,54.57
2022-09-10T14:55:41.550Z,55.20
2022-09-10T15:00:43.116Z,57.25
2022-09-10T15:05:46.093Z,58.30
2022-09-10T15:10:50.256Z,59.45
2022-09-10T15:15:53.783Z,59.58
2022-09-10T15:20:55.364Z,60.39
2022-09-10T15:25:58.121Z,59.83
2022-09-10T15:30:59.768Z,59.79
2022-09-10T15:36:01.916Z,59.70
2022-09-10T15:41:12.995Z,57.91
2022-09-10T15:46:17.106Z,58.05
2022-09-10T15:51:21.483Z,58.28
2022-09-10T15:56:27.088Z,58.33
2022-09-10T16:01:29.266Z,58.62
2022-09-10T16:06:37.712Z,56.96
2022-09-10T16:11:42.323Z,57.04
2022-09-10T16:16:43.893Z,58.23
2022-09-10T16:21:45.856Z,57.81
2022-09-10T16:26:49.135Z,57.72
2022-09-10T16:31:50.746Z,59.34
2022-09-10T16:36:53.003Z,62.64
2022-09-10T16:41:56.039Z,60.52
2022-09-10T16:46:59.314Z,63.43
2022-09-10T16:52:00.880Z,63.47
2022-09-10T16:57:02.517Z,65.03
2022-09-10T17:02:05.405Z,65.11
2022-09-10T17:07:07.055Z,65.71
2022-09-10T17:12:10.499Z,67.63
2022-09-10T17:17:12.595Z,66.99
2022-09-10T17:22:14.062Z,69.59
2022-09-10T17:27:15.563Z,69.62
2022-09-10T17:32:17.071Z,70.61
2022-09-10T17:37:19.772Z,71.49
2022-09-10T17:42:21.291Z,72.10
2022-09-10T17:47:23.129Z,71.99
2022-09-10T17:52:25.779Z,74.07
2022-09-10T17:57:27.284Z,75.58
2022-09-10T18:02:29.039Z,76.75
2022-09-10T18:07:31.157Z,77.83
2022-09-10T18:12:32.748Z,79.88
2022-09-10T18:17:34.269Z,80.65
2022-09-10T18:22:35.750Z,80.43
2022-09-10T18:27:37.755Z,81.79
2022-09-10T18:32:39.366Z,81.58
2022-09-10T18:37:40.830Z,80.74
2022-09-10T18:42:46.140Z,84.38
2022-09-10T18:47:48.304Z,86.50
2022-09-10T18:52:49.866Z,86.46
2022-09-10T18:57:51.348Z,86.06
2022-09-10T19:10:02.492Z,82.49
2022-09-10T19:21:41.609Z,81.09
2022-09-10T19:26:46.726Z,82.31
2022-09-10T19:33:01.321Z,85.32
2022-09-10T19:38:15.799Z,85.92
2022-09-10T19:43:25.057Z,86.63
2022-09-10T19:48:26.669Z,86.40
2022-09-10T19:53:28.491Z,86.27
2022-09-10T19:58:30.168Z,86.53
2022-09-10T20:03:32.045Z,86.46
2022-09-10T20:08:35.180Z,85.72
2022-09-10T20:13:37.200Z,85.23
2022-09-10T20:18:39.072Z,84.66
2022-09-10T20:23:43.413Z,83.82
2022-09-10T20:28:49.988Z,82.05
2022-09-10T20:34:03.090Z,83.20
2022-09-10T20:39:12.038Z,83.81
2022-09-10T20:44:16.722Z,84.73
2022-09-10T20:49:18.631Z,85.49
2022-09-10T20:54:20.237Z,82.79
2022-09-10T20:59:27.700Z,83.80
2022-09-10T21:04:29.554Z,84.21
2022-09-10T21:09:31.362Z,84.38
2022-09-10T21:14:33.307Z,86.81
2022-09-10T21:19:34.849Z,86.89
2022-09-10T21:24:36.410Z,88.49
2022-09-10T21:29:37.965Z,89.09
2022-09-10T21:34:40.328Z,88.38
2022-09-10T21:39:41.885Z,87.58
2022-09-10T21:44:43.527Z,87.35
2022-09-10T21:49:45.088Z,84.67
2022-09-10T21:54:46.773Z,84.95
2022-09-10T21:59:48.802Z,84.79
2022-09-10T22:04:50.345Z,84.81
2022-09-10T22:09:51.865Z,85.44
2022-09-10T22:14:53.759Z,85.21
2022-09-10T22:19:55.414Z,85.85
2022-09-10T22:24:56.918Z,85.82
2022-09-10T22:29:59.027Z,87.21
2022-09-10T22:35:00.593Z,87.96
2022-09-10T22:40:02.796Z,89.37
2022-09-10T22:45:04.916Z,90.38
2022-09-10T22:50:06.565Z,91.71
2022-09-10T22:55:08.682Z,90.93
2022-09-10T23:00:13.659Z,92.59
2022-09-10T23:05:15.344Z,92.52
2022-09-10T23:10:18.047Z,92.90
2022-09-10T23:15:19.582Z,91.91
2022-09-10T23:20:21.277Z,91.03
2022-09-10T23:25:22.869Z,90.87
2022-09-10T23:30:24.456Z,92.06
2022-09-10T23:35:26.164Z,92.32
2022-09-10T23:40:32.282Z,93.49
2022-09-10T23:45:35.895Z,94.29
2022-09-10T23:50:37.417Z,94.58
2022-09-10T23:55:40.120Z,93.85
